createdAt,value
2018-09-27T00:00:30.858Z,3.56
2018-09-27T00:01:36.960Z,3.52
2018-09-27T00:02:43.079Z,3.49
2018-09-27T00:03:49.297Z,3.46
2018-09-27T00:04:55.319Z,3.43
2018-09-27T00:06:01.417Z,3.48
2018-09-27T00:07:07.539Z,3.47
2018-09-27T00:08:14.119Z,3.49
2018-09-27T00:09:19.774Z,3.48
2018-09-27T00:10:25.875Z,3.44
2018-09-27T00:11:31.989Z,3.43
2018-09-27T00:12:38.107Z,3.41
2018-09-27T00:13:44.245Z,3.40
2018-09-27T00:14:50.344Z,3.40
2018-09-27T00:15:56.472Z,3.45
2018-09-27T00:17:02.569Z,3.52
2018-09-27T00:18:08.673Z,3.55
2018-09-27T00:19:14.797Z,3.56
2018-09-27T00:20:20.890Z,3.57
2018-09-27T00:21:27.002Z,3.59
2018-09-27T00:22:33.131Z,3.57
2018-09-27T00:23:39.286Z,3.69
2018-09-27T00:24:45.354Z,3.66
2018-09-27T00:25:51.471Z,3.58
2018-09-27T00:26:57.571Z,3.57
2018-09-27T00:28:04.675Z,3.55
2018-09-27T00:29:09.802Z,3.47
2018-09-27T00:30:15.918Z,3.37
2018-09-27T00:31:22.034Z,3.29
2018-09-27T00:32:28.127Z,3.23
2018-09-27T00:33:34.248Z,3.23
2018-09-27T00:34:40.358Z,3.22
2018-09-27T00:35:46.456Z,3.23
2018-09-27T00:36:52.558Z,3.25
2018-09-27T00:37:58.685Z,3.31
2018-09-27T00:39:04.799Z,3.35
2018-09-27T00:40:10.891Z,3.40
2018-09-27T00:41:17.005Z,3.46
2018-09-27T00:42:23.116Z,3.51
2018-09-27T00:43:29.283Z,3.44
2018-09-27T00:44:35.340Z,3.34
2018-09-27T00:45:41.429Z,3.22
2018-09-27T00:46:48.563Z,3.13
2018-09-27T00:47:53.675Z,3.03
2018-09-27T00:48:59.765Z,3.06
2018-09-27T00:50:05.885Z,3.26
2018-09-27T00:51:11.981Z,3.39
2018-09-27T00:52:18.103Z,3.53
2018-09-27T00:53:24.197Z,3.58
2018-09-27T00:54:30.325Z,3.50
2018-09-27T00:55:36.431Z,3.37
2018-09-27T00:56:42.525Z,3.23
2018-09-27T00:57:48.640Z,3.12
2018-09-27T00:58:54.746Z,3.07
2018-09-27T01:00:00.869Z,3.13
2018-09-27T01:01:06.956Z,3.28
2018-09-27T01:02:13.077Z,3.33
2018-09-27T01:03:19.279Z,3.33
2018-09-27T01:04:25.292Z,3.31
2018-09-27T01:05:32.390Z,3.25
2018-09-27T01:06:37.493Z,3.14
2018-09-27T01:07:43.611Z,3.04
2018-09-27T01:08:49.728Z,3.00
2018-09-27T01:09:55.828Z,3.03
2018-09-27T01:11:02.931Z,3.12
2018-09-27T01:12:08.034Z,3.10
2018-09-27T01:13:15.142Z,3.03
2018-09-27T01:14:20.257Z,2.97
2018-09-27T01:15:26.370Z,2.89
2018-09-27T01:16:32.453Z,2.80
2018-09-27T01:17:38.582Z,2.73
2018-09-27T01:18:44.679Z,2.70
2018-09-27T01:19:50.775Z,2.74
2018-09-27T01:20:56.891Z,2.80
2018-09-27T01:22:02.982Z,2.96
2018-09-27T01:23:09.086Z,3.09
2018-09-27T01:24:15.294Z,3.14
2018-09-27T01:25:21.316Z,3.14
2018-09-27T01:26:27.411Z,3.07
2018-09-27T01:27:33.528Z,2.99
2018-09-27T01:28:39.619Z,2.97
2018-09-27T01:29:45.753Z,3.03
2018-09-27T01:30:51.834Z,3.05
2018-09-27T01:31:57.929Z,3.03
2018-09-27T01:33:04.034Z,2.97
2018-09-27T01:34:10.145Z,2.88
2018-09-27T01:35:16.283Z,2.89
2018-09-27T01:36:22.350Z,2.87
2018-09-27T01:37:28.453Z,2.88
2018-09-27T01:38:34.561Z,2.89
2018-09-27T01:39:40.680Z,2.88
2018-09-27T01:40:46.770Z,2.86
2018-09-27T01:41:52.874Z,2.79
2018-09-27T01:42:58.967Z,2.73
2018-09-27T01:44:05.078Z,2.70
2018-09-27T01:45:11.171Z,2.74
2018-09-27T01:46:17.273Z,2.79
2018-09-27T01:47:23.383Z,2.89
2018-09-27T01:48:29.500Z,2.94
2018-09-27T01:49:35.595Z,2.95
2018-09-27T01:50:41.687Z,2.91
2018-09-27T01:51:47.790Z,2.86
2018-09-27T01:52:53.899Z,2.83
2018-09-27T01:54:00.992Z,2.95
2018-09-27T01:55:07.109Z,3.07
2018-09-27T01:56:12.291Z,3.15
2018-09-27T01:57:18.302Z,3.11
2018-09-27T01:58:24.416Z,3.01
2018-09-27T01:59:30.520Z,2.98
2018-09-27T02:00:36.630Z,2.97
2018-09-27T02:01:42.743Z,2.96
2018-09-27T02:02:48.812Z,2.90
2018-09-27T02:03:54.936Z,2.81
2018-09-27T02:05:01.030Z,2.72
2018-09-27T02:06:07.132Z,2.67
2018-09-27T02:07:13.234Z,2.70
2018-09-27T02:08:20.349Z,2.83
2018-09-27T02:09:25.443Z,2.94
2018-09-27T02:10:31.543Z,2.98
2018-09-27T02:11:37.644Z,2.91
2018-09-27T02:12:43.741Z,2.84
2018-09-27T02:13:49.840Z,2.75
2018-09-27T02:14:55.948Z,2.69
2018-09-27T02:16:02.026Z,2.73
2018-09-27T02:17:08.133Z,2.90
2018-09-27T02:18:14.285Z,3.06
2018-09-27T02:19:20.333Z,3.14
2018-09-27T02:20:26.426Z,3.22
2018-09-27T02:21:32.539Z,3.06
2018-09-27T02:22:38.626Z,2.88
2018-09-27T02:23:44.710Z,2.76
2018-09-27T02:24:50.848Z,2.71
2018-09-27T02:25:56.920Z,2.77
2018-09-27T02:27:03.028Z,2.82
2018-09-27T02:28:09.114Z,2.81
2018-09-27T02:29:15.223Z,2.75
2018-09-27T02:30:21.314Z,2.66
2018-09-27T02:31:27.428Z,2.60
2018-09-27T02:32:33.520Z,2.54
2018-09-27T02:33:39.615Z,2.52
2018-09-27T02:34:45.700Z,2.52
2018-09-27T02:35:51.873Z,2.49
2018-09-27T02:36:57.895Z,2.46
2018-09-27T02:38:04.007Z,2.48
2018-09-27T02:39:10.092Z,2.55
2018-09-27T02:40:16.292Z,2.49
2018-09-27T02:41:22.301Z,2.42
2018-09-27T02:42:28.397Z,2.37
2018-09-27T02:43:34.483Z,2.36
2018-09-27T02:44:40.588Z,2.36
2018-09-27T02:45:46.689Z,2.38
2018-09-27T02:46:52.793Z,2.33
2018-09-27T02:47:58.861Z,2.25
2018-09-27T02:49:04.973Z,2.27
2018-09-27T02:50:11.064Z,2.32
2018-09-27T02:51:17.153Z,2.35
2018-09-27T02:52:24.284Z,2.35
2018-09-27T02:53:29.338Z,2.37
2018-09-27T02:54:35.416Z,2.33
2018-09-27T02:55:41.526Z,2.27
2018-09-27T02:56:47.594Z,2.22
2018-09-27T02:57:54.690Z,2.13
2018-09-27T02:58:59.787Z,2.22
2018-09-27T03:00:05.879Z,2.35
2018-09-27T03:01:11.984Z,2.42
2018-09-27T03:02:18.044Z,2.50
2018-09-27T03:03:24.142Z,2.48
2018-09-27T03:04:30.279Z,2.45
2018-09-27T03:05:36.334Z,2.40
2018-09-27T03:06:43.406Z,2.48
2018-09-27T03:07:48.480Z,2.51
2018-09-27T03:08:54.588Z,2.50
2018-09-27T03:10:00.674Z,2.42
2018-09-27T03:11:06.797Z,2.28
2018-09-27T03:12:12.874Z,2.16
2018-09-27T03:13:19.932Z,2.08
2018-09-27T03:14:25.033Z,2.05
2018-09-27T03:15:31.131Z,2.08
2018-09-27T03:16:37.193Z,2.10
2018-09-27T03:17:43.293Z,2.11
2018-09-27T03:18:49.372Z,2.10
2018-09-27T03:19:55.485Z,2.09
2018-09-27T03:21:01.614Z,2.10
2018-09-27T03:22:07.647Z,2.14
2018-09-27T03:23:13.732Z,2.25
2018-09-27T03:24:19.821Z,2.30
2018-09-27T03:25:25.930Z,2.27
2018-09-27T03:26:32.004Z,2.21
2018-09-27T03:27:38.093Z,2.13
2018-09-27T03:28:44.276Z,2.08
2018-09-27T03:29:50.292Z,2.05
2018-09-27T03:30:56.364Z,2.07
2018-09-27T03:32:02.440Z,2.17
2018-09-27T03:33:08.529Z,2.24
2018-09-27T03:34:14.619Z,2.28
2018-09-27T03:35:20.715Z,2.30
2018-09-27T03:36:26.795Z,2.28
2018-09-27T03:37:32.871Z,2.18
2018-09-27T03:38:38.966Z,2.11
2018-09-27T03:39:45.161Z,2.05
2018-09-27T03:40:51.133Z,2.05
2018-09-27T03:41:57.209Z,2.07
2018-09-27T03:43:03.296Z,2.02
2018-09-27T03:44:09.374Z,1.98
2018-09-27T03:45:15.467Z,2.01
2018-09-27T03:46:21.562Z,2.11
2018-09-27T03:47:27.642Z,2.13
2018-09-27T03:48:33.715Z,2.08
2018-09-27T03:49:39.827Z,2.08
2018-09-27T03:50:45.902Z,2.11
2018-09-27T03:51:51.981Z,2.17
2018-09-27T03:52:58.053Z,2.21
2018-09-27T03:54:04.147Z,2.22
2018-09-27T03:55:10.277Z,2.23
2018-09-27T03:56:16.302Z,2.21
2018-09-27T03:57:22.389Z,2.18
2018-09-27T03:58:28.463Z,2.09
2018-09-27T03:59:34.564Z,1.98
2018-09-27T04:00:40.645Z,1.92
2018-09-27T04:01:46.711Z,1.92
2018-09-27T04:02:52.810Z,1.98
2018-09-27T04:03:58.886Z,2.00
2018-09-27T04:05:04.962Z,2.02
2018-09-27T04:06:11.070Z,1.99
2018-09-27T04:07:17.133Z,1.90
2018-09-27T04:08:23.208Z,1.83
2018-09-27T04:09:29.307Z,1.79
2018-09-27T04:10:35.382Z,1.93
2018-09-27T04:11:41.469Z,2.02
2018-09-27T04:12:47.537Z,2.05
2018-09-27T04:13:53.622Z,2.07
2018-09-27T04:14:59.703Z,1.97
2018-09-27T04:16:05.789Z,1.88
2018-09-27T04:17:12.856Z,1.83
2018-09-27T04:18:17.946Z,1.80
2018-09-27T04:19:24.037Z,1.80
2018-09-27T04:20:30.114Z,1.87
2018-09-27T04:21:36.288Z,1.93
2018-09-27T04:22:42.274Z,2.01
2018-09-27T04:23:48.354Z,2.07
2018-09-27T04:24:54.454Z,2.09
2018-09-27T04:26:00.519Z,2.04
2018-09-27T04:27:06.608Z,2.02
2018-09-27T04:28:12.692Z,2.06
2018-09-27T04:29:18.754Z,2.23
2018-09-27T04:30:24.850Z,2.38
2018-09-27T04:31:31.229Z,2.49
2018-09-27T04:32:37.007Z,2.57
2018-09-27T04:33:43.119Z,2.48
2018-09-27T04:34:49.183Z,2.32
2018-09-27T04:35:55.270Z,2.19
2018-09-27T04:37:01.359Z,2.10
2018-09-27T04:38:07.404Z,2.11
2018-09-27T04:39:13.492Z,2.13
2018-09-27T04:40:19.600Z,2.12
2018-09-27T04:41:25.671Z,2.01
2018-09-27T04:42:31.740Z,1.92
2018-09-27T04:43:37.841Z,1.85
2018-09-27T04:44:44.913Z,1.87
2018-09-27T04:45:50.042Z,1.92
2018-09-27T04:46:56.086Z,1.97
2018-09-27T04:48:02.151Z,1.99
2018-09-27T04:49:08.294Z,1.97
2018-09-27T04:50:14.312Z,1.89
2018-09-27T04:51:20.398Z,1.82
2018-09-27T04:52:26.475Z,1.79
2018-09-27T04:53:32.545Z,1.78
2018-09-27T04:54:38.714Z,1.76
2018-09-27T04:55:44.718Z,1.74
2018-09-27T04:56:50.792Z,1.70
2018-09-27T04:57:56.871Z,1.64
2018-09-27T04:59:02.948Z,1.69
2018-09-27T05:00:09.121Z,1.92
2018-09-27T05:01:14.603Z,1.93
2018-09-27T05:02:21.181Z,1.92
2018-09-27T05:03:27.257Z,1.96
2018-09-27T05:04:33.328Z,2.00
2018-09-27T05:05:39.405Z,1.95
2018-09-27T05:06:45.495Z,1.85
2018-09-27T05:07:51.575Z,1.74
2018-09-27T05:08:57.644Z,1.66
2018-09-27T05:10:03.715Z,1.61
2018-09-27T05:11:09.800Z,1.68
2018-09-27T05:12:15.878Z,1.72
2018-09-27T05:13:21.948Z,1.69
2018-09-27T05:14:28.032Z,1.70
2018-09-27T05:15:34.135Z,1.72
2018-09-27T05:16:40.281Z,1.64
2018-09-27T05:17:46.284Z,1.56
2018-09-27T05:18:52.348Z,1.48
2018-09-27T05:19:58.411Z,1.45
2018-09-27T05:21:04.486Z,1.48
2018-09-27T05:22:10.586Z,1.48
2018-09-27T05:23:16.660Z,1.57
2018-09-27T05:24:22.726Z,1.64
2018-09-27T05:25:28.808Z,1.68
2018-09-27T05:26:34.892Z,1.75
2018-09-27T05:27:40.994Z,1.73
2018-09-27T05:28:47.044Z,1.78
2018-09-27T05:29:54.127Z,1.85
2018-09-27T05:30:59.217Z,1.88
2018-09-27T05:32:05.311Z,1.88
2018-09-27T05:33:11.425Z,1.91
2018-09-27T05:34:17.466Z,1.99
2018-09-27T05:35:23.546Z,2.02
2018-09-27T05:36:29.625Z,2.08
2018-09-27T05:37:35.731Z,2.12
2018-09-27T05:38:41.783Z,2.11
2018-09-27T05:39:48.862Z,2.10
2018-09-27T05:40:53.962Z,2.09
2018-09-27T05:42:00.035Z,2.04
2018-09-27T05:43:06.131Z,2.05
2018-09-27T05:44:12.214Z,2.08
2018-09-27T05:45:18.298Z,2.11
2018-09-27T05:46:25.520Z,2.15
2018-09-27T05:47:30.476Z,2.17
2018-09-27T05:48:36.552Z,2.21
2018-09-27T05:49:42.662Z,2.23
2018-09-27T05:50:48.729Z,2.26
2018-09-27T05:51:54.818Z,2.32
2018-09-27T05:53:00.929Z,2.34
2018-09-27T05:54:06.977Z,2.41
2018-09-27T05:55:14.067Z,2.49
2018-09-27T05:56:19.283Z,2.58
2018-09-27T05:57:25.303Z,2.64
2018-09-27T05:58:31.361Z,2.73
2018-09-27T05:59:37.442Z,2.87
2018-09-27T06:00:43.522Z,2.91
2018-09-27T06:01:49.638Z,2.92
2018-09-27T06:02:55.728Z,2.93
2018-09-27T06:04:01.798Z,2.97
2018-09-27T06:05:07.893Z,3.05
2018-09-27T06:06:13.997Z,3.13
2018-09-27T06:07:20.092Z,3.14
2018-09-27T06:08:26.197Z,3.11
2018-09-27T06:09:32.300Z,3.09
2018-09-27T06:10:38.395Z,3.09
2018-09-27T06:11:44.486Z,3.08
2018-09-27T06:12:50.595Z,3.09
2018-09-27T06:13:56.683Z,3.18
2018-09-27T06:15:02.805Z,3.26
2018-09-27T06:16:08.911Z,3.28
2018-09-27T06:17:15.016Z,3.49
2018-09-27T06:18:21.130Z,3.52
2018-09-27T06:19:27.314Z,3.46
2018-09-27T06:20:33.367Z,3.40
2018-09-27T06:21:39.576Z,3.37
2018-09-27T06:22:45.568Z,3.36
2018-09-27T06:23:51.686Z,3.38
2018-09-27T06:24:57.798Z,3.41
2018-09-27T06:26:03.910Z,3.43
2018-09-27T06:27:10.028Z,3.43
2018-09-27T06:28:16.136Z,3.42
2018-09-27T06:29:22.277Z,3.41
2018-09-27T06:30:28.825Z,3.41
2018-09-27T06:31:34.480Z,3.44
2018-09-27T06:32:40.608Z,3.50
2018-09-27T06:33:46.725Z,3.52
2018-09-27T06:34:52.847Z,3.51
2018-09-27T06:35:58.952Z,3.48
2018-09-27T06:37:05.072Z,3.49
2018-09-27T06:38:11.293Z,3.51
2018-09-27T06:39:17.300Z,3.56
2018-09-27T06:40:23.424Z,3.60
2018-09-27T06:41:29.592Z,3.62
2018-09-27T06:42:35.650Z,3.66
2018-09-27T06:43:42.786Z,3.73
2018-09-27T06:44:47.942Z,3.75
2018-09-27T06:45:54.034Z,3.76
2018-09-27T06:47:00.276Z,3.78
2018-09-27T06:48:06.289Z,3.78
2018-09-27T06:49:12.405Z,3.74
2018-09-27T06:50:18.537Z,3.74
2018-09-27T06:51:24.658Z,3.81
2018-09-27T06:52:30.793Z,3.93
2018-09-27T06:53:36.936Z,4.02
2018-09-27T06:54:43.995Z,4.13
2018-09-27T06:55:49.280Z,4.16
2018-09-27T06:56:55.324Z,4.21
2018-09-27T06:58:01.458Z,4.26
2018-09-27T06:59:07.602Z,4.33
2018-09-27T07:00:13.738Z,4.39
2018-09-27T07:01:19.883Z,4.42
2018-09-27T07:02:26.060Z,4.47
2018-09-27T07:03:33.142Z,4.50
2018-09-27T07:04:38.282Z,4.53
2018-09-27T07:05:44.429Z,4.59
2018-09-27T07:06:50.587Z,4.68
2018-09-27T07:07:56.717Z,4.80
2018-09-27T07:09:02.863Z,4.95
2018-09-27T07:10:09.000Z,5.06
2018-09-27T07:11:15.145Z,5.20
2018-09-27T07:12:21.406Z,5.34
2018-09-27T07:13:27.457Z,5.39
2018-09-27T07:14:33.624Z,5.43
2018-09-27T07:15:39.855Z,5.50
2018-09-27T07:16:45.896Z,5.62
2018-09-27T07:17:52.049Z,5.66
2018-09-27T07:18:58.282Z,5.75
2018-09-27T07:20:04.358Z,5.86
2018-09-27T07:21:10.515Z,5.93
2018-09-27T07:22:16.676Z,5.99
2018-09-27T07:23:22.850Z,6.04
2018-09-27T07:24:29.995Z,6.09
2018-09-27T07:25:35.159Z,6.14
2018-09-27T07:26:41.444Z,6.18
2018-09-27T07:27:47.485Z,6.19
2018-09-27T07:28:53.667Z,6.20
2018-09-27T07:29:59.823Z,6.22
2018-09-27T07:31:06.008Z,6.18
2018-09-27T07:32:12.278Z,6.22
2018-09-27T07:33:18.349Z,6.30
2018-09-27T07:34:24.526Z,6.30
2018-09-27T07:35:31.677Z,6.28
2018-09-27T07:36:36.985Z,6.30
2018-09-27T07:37:43.028Z,6.33
2018-09-27T07:38:50.280Z,6.38
2018-09-27T07:39:55.405Z,6.49
2018-09-27T07:41:01.585Z,6.60
2018-09-27T07:42:07.773Z,6.61
2018-09-27T07:43:13.957Z,6.69
2018-09-27T07:44:20.148Z,6.79
2018-09-27T07:45:26.322Z,6.85
2018-09-27T07:46:32.504Z,6.86
2018-09-27T07:47:38.691Z,6.89
2018-09-27T07:48:44.904Z,7.00
2018-09-27T07:49:51.084Z,7.07
2018-09-27T07:50:57.262Z,7.13
2018-09-27T07:52:04.459Z,7.19
2018-09-27T07:53:09.651Z,7.25
2018-09-27T07:54:15.911Z,7.35
2018-09-27T07:55:22.057Z,7.39
2018-09-27T07:56:28.305Z,7.41
2018-09-27T07:57:34.478Z,7.40
2018-09-27T07:58:40.674Z,7.44
2018-09-27T07:59:46.865Z,7.46
2018-09-27T08:00:53.096Z,7.59
2018-09-27T08:01:59.279Z,7.67
2018-09-27T08:03:05.517Z,7.77
2018-09-27T08:04:11.758Z,7.81
2018-09-27T08:05:17.890Z,7.86
2018-09-27T08:06:24.106Z,7.93
2018-09-27T08:07:30.328Z,7.99
2018-09-27T08:08:36.585Z,8.04
2018-09-27T08:09:42.761Z,8.08
2018-09-27T08:10:49.000Z,8.10
2018-09-27T08:11:55.309Z,8.09
2018-09-27T08:13:01.458Z,8.12
2018-09-27T08:14:07.695Z,8.23
2018-09-27T08:15:13.932Z,8.29
2018-09-27T08:16:20.171Z,8.34
2018-09-27T08:17:26.419Z,8.38
2018-09-27T08:18:32.660Z,8.38
2018-09-27T08:19:38.901Z,8.40
2018-09-27T08:20:45.336Z,8.43
2018-09-27T08:21:51.388Z,8.46
2018-09-27T08:22:57.647Z,8.50
2018-09-27T08:24:03.985Z,8.52
2018-09-27T08:25:11.131Z,8.59
2018-09-27T08:26:17.408Z,8.67
2018-09-27T08:27:22.649Z,8.72
2018-09-27T08:28:28.916Z,8.76
2018-09-27T08:29:35.201Z,8.78
2018-09-27T08:30:41.488Z,8.83
2018-09-27T08:31:47.711Z,8.84
2018-09-27T08:32:53.964Z,8.86
2018-09-27T08:34:00.281Z,8.90
2018-09-27T08:35:06.525Z,8.98
2018-09-27T08:36:12.781Z,9.07
2018-09-27T08:37:19.046Z,9.13
2018-09-27T08:38:25.408Z,9.26
2018-09-27T08:39:31.586Z,9.31
2018-09-27T08:40:37.875Z,9.34
2018-09-27T08:41:44.151Z,9.36
2018-09-27T08:42:50.428Z,9.39
2018-09-27T08:43:56.720Z,9.45
2018-09-27T08:45:03.114Z,9.47
2018-09-27T08:46:09.284Z,9.51
2018-09-27T08:48:21.831Z,9.53
2018-09-27T08:49:28.144Z,9.51
2018-09-27T08:50:35.032Z,9.57
2018-09-27T08:51:40.761Z,9.58
2018-09-27T08:52:48.000Z,9.60
2018-09-27T08:53:54.324Z,9.63
2018-09-27T08:54:59.576Z,9.65
2018-09-27T08:56:05.990Z,9.70
2018-09-27T08:57:11.693Z,9.85
2018-09-27T08:58:18.477Z,9.93
2018-09-27T08:59:24.792Z,10.04
2018-09-27T09:00:31.078Z,10.09
2018-09-27T09:01:37.436Z,10.12
2018-09-27T09:02:43.710Z,10.13
2018-09-27T09:03:50.001Z,10.20
2018-09-27T09:04:57.303Z,10.29
2018-09-27T09:06:02.632Z,10.32
2018-09-27T09:07:08.928Z,10.41
2018-09-27T09:08:15.236Z,10.44
2018-09-27T09:09:22.572Z,10.52
2018-09-27T09:10:27.870Z,10.56
2018-09-27T09:11:34.269Z,10.59
2018-09-27T09:12:40.503Z,10.64
2018-09-27T09:13:46.834Z,10.70
2018-09-27T09:14:53.155Z,10.77
2018-09-27T09:15:59.471Z,10.79
2018-09-27T09:17:05.801Z,10.92
2018-09-27T09:18:12.106Z,11.02
2018-09-27T09:19:18.457Z,11.08
2018-09-27T09:20:25.769Z,11.13
2018-09-27T09:21:31.155Z,11.23
2018-09-27T09:22:37.438Z,11.29
2018-09-27T09:23:43.776Z,11.32
2018-09-27T09:24:50.129Z,11.33
2018-09-27T09:25:56.481Z,11.37
2018-09-27T09:27:02.771Z,11.43
2018-09-27T09:28:09.115Z,11.47
2018-09-27T09:29:15.488Z,11.57
2018-09-27T09:30:21.810Z,11.72
2018-09-27T09:31:28.139Z,11.77
2018-09-27T09:32:34.492Z,11.75
2018-09-27T09:33:40.881Z,11.73
2018-09-27T09:34:47.197Z,11.73
2018-09-27T09:35:53.580Z,11.81
2018-09-27T09:36:59.909Z,11.85
2018-09-27T09:38:06.303Z,11.91
2018-09-27T09:39:12.620Z,12.01
2018-09-27T09:40:19.945Z,12.12
2018-09-27T09:41:25.323Z,12.18
2018-09-27T09:42:31.685Z,12.22
2018-09-27T09:43:38.054Z,12.32
2018-09-27T09:44:44.407Z,12.39
2018-09-27T09:45:50.762Z,12.49
2018-09-27T09:46:57.153Z,12.54
2018-09-27T09:48:03.508Z,12.58
2018-09-27T09:49:09.863Z,12.72
2018-09-27T09:50:16.282Z,12.89
2018-09-27T09:51:22.630Z,13.02
2018-09-27T09:52:29.001Z,13.12
2018-09-27T09:53:35.388Z,13.22
2018-09-27T09:54:41.757Z,13.32
2018-09-27T09:55:48.137Z,13.36
2018-09-27T09:56:54.520Z,13.39
2018-09-27T09:58:00.899Z,13.44
2018-09-27T09:59:08.228Z,13.51
2018-09-27T10:00:13.663Z,13.57
2018-09-27T10:01:20.059Z,13.62
2018-09-27T10:02:26.560Z,13.62
2018-09-27T10:03:32.852Z,13.61
2018-09-27T10:04:39.234Z,13.60
2018-09-27T10:05:45.643Z,13.65
2018-09-27T10:06:52.027Z,13.73
2018-09-27T10:07:58.422Z,13.90
2018-09-27T10:09:04.407Z,14.01
2018-09-27T10:10:11.235Z,14.09
2018-09-27T10:11:17.657Z,14.14
2018-09-27T10:12:24.037Z,14.13
2018-09-27T10:13:30.434Z,14.19
2018-09-27T10:14:36.852Z,14.21
2018-09-27T10:15:43.705Z,14.24
2018-09-27T10:16:49.689Z,14.25
2018-09-27T10:17:56.083Z,14.27
2018-09-27T10:19:02.492Z,14.23
2018-09-27T10:20:08.927Z,14.16
2018-09-27T10:21:15.347Z,14.18
2018-09-27T10:22:21.768Z,14.23
2018-09-27T10:23:28.184Z,14.29
2018-09-27T10:24:34.631Z,14.37
2018-09-27T10:25:41.030Z,14.43
2018-09-27T10:26:47.456Z,14.55
2018-09-27T10:27:53.876Z,14.66
2018-09-27T10:29:00.300Z,14.74
2018-09-27T10:30:06.727Z,14.82
2018-09-27T10:31:13.159Z,14.85
2018-09-27T10:32:19.590Z,14.93
2018-09-27T10:33:26.042Z,15.01
2018-09-27T10:34:33.491Z,15.04
2018-09-27T10:35:38.909Z,15.11
2018-09-27T10:36:45.335Z,15.16
2018-09-27T10:37:51.776Z,15.23
2018-09-27T10:38:58.231Z,15.24
2018-09-27T10:40:04.669Z,15.24
2018-09-27T10:41:11.126Z,15.33
2018-09-27T10:42:18.579Z,15.44
2018-09-27T10:43:24.009Z,15.48
2018-09-27T10:44:30.440Z,15.53
2018-09-27T10:45:36.918Z,15.64
2018-09-27T10:46:43.385Z,15.73
2018-09-27T10:47:49.810Z,15.74
2018-09-27T10:48:56.312Z,15.82
2018-09-27T10:50:02.725Z,15.93
2018-09-27T10:51:09.316Z,16.03
2018-09-27T10:52:15.683Z,16.12
2018-09-27T10:53:22.099Z,16.15
2018-09-27T10:54:28.569Z,16.16
2018-09-27T10:55:36.015Z,16.15
2018-09-27T10:56:42.436Z,16.15
2018-09-27T10:57:47.963Z,16.17
2018-09-27T10:58:54.414Z,16.18
2018-09-27T11:00:00.914Z,16.23
2018-09-27T11:01:07.383Z,16.39
2018-09-27T11:02:13.879Z,16.57
2018-09-27T11:03:20.319Z,16.58
2018-09-27T11:04:26.786Z,16.59
2018-09-27T11:05:33.314Z,16.64
2018-09-27T11:06:39.759Z,16.63
2018-09-27T11:07:46.220Z,16.65
2018-09-27T11:08:52.718Z,16.62
2018-09-27T11:09:59.273Z,16.61
2018-09-27T11:11:05.771Z,16.69
2018-09-27T11:12:12.201Z,16.74
2018-09-27T11:13:18.667Z,16.81
2018-09-27T11:14:25.283Z,16.84
2018-09-27T11:15:32.664Z,16.87
2018-09-27T11:16:39.203Z,17.02
2018-09-27T11:17:44.673Z,17.17
2018-09-27T11:18:51.163Z,17.20
2018-09-27T11:19:57.686Z,17.22
2018-09-27T11:21:04.191Z,17.26
2018-09-27T11:22:10.716Z,17.28
2018-09-27T11:23:17.298Z,17.34
2018-09-27T11:24:23.910Z,17.37
2018-09-27T11:25:30.549Z,17.42
2018-09-27T11:26:37.281Z,17.48
2018-09-27T11:27:44.070Z,17.55
2018-09-27T11:28:50.691Z,17.53
2018-09-27T11:29:58.459Z,17.55
2018-09-27T11:31:04.274Z,17.56
2018-09-27T11:32:11.102Z,17.55
2018-09-27T11:33:17.974Z,17.55
2018-09-27T11:34:24.866Z,17.72
2018-09-27T11:35:32.790Z,17.79
2018-09-27T11:36:38.725Z,17.92
2018-09-27T11:37:45.653Z,17.97
2018-09-27T11:38:52.635Z,18.03
2018-09-27T11:39:59.614Z,18.11
2018-09-27T11:41:06.746Z,18.17
2018-09-27T11:42:14.635Z,18.19
2018-09-27T11:43:21.647Z,18.26
2018-09-27T11:44:27.685Z,18.31
2018-09-27T11:45:34.734Z,18.36
2018-09-27T11:46:41.813Z,18.35
2018-09-27T11:47:48.865Z,18.39
2018-09-27T11:48:56.038Z,18.44
2018-09-27T11:50:03.435Z,18.48
2018-09-27T11:51:10.145Z,18.67
2018-09-27T11:52:17.596Z,18.73
2018-09-27T11:53:24.411Z,18.73
2018-09-27T11:54:31.524Z,18.75
2018-09-27T11:55:39.666Z,18.81
2018-09-27T11:56:45.831Z,18.88
2018-09-27T11:57:52.969Z,18.94
2018-09-27T11:59:00.150Z,18.98
2018-09-27T12:00:07.294Z,19.04
2018-09-27T12:01:14.477Z,19.10
2018-09-27T12:02:21.666Z,19.14
2018-09-27T12:03:28.849Z,19.17
2018-09-27T12:04:36.035Z,19.21
2018-09-27T12:05:43.277Z,19.29
2018-09-27T12:06:50.937Z,19.29
2018-09-27T12:07:57.696Z,19.31
2018-09-27T12:09:04.916Z,19.32
2018-09-27T12:10:11.668Z,19.33
2018-09-27T12:11:19.409Z,19.34
2018-09-27T12:12:26.166Z,19.36
2018-09-27T12:13:34.015Z,19.51
2018-09-27T12:14:41.317Z,19.60
2018-09-27T12:15:48.438Z,19.67
2018-09-27T12:16:55.705Z,19.62
2018-09-27T12:18:02.972Z,19.62
2018-09-27T12:19:10.725Z,19.73
2018-09-27T12:20:17.488Z,19.81
2018-09-27T12:21:24.764Z,19.88
2018-09-27T12:22:32.034Z,19.86
2018-09-27T12:23:39.308Z,19.82
2018-09-27T12:24:46.588Z,19.79
2018-09-27T12:25:53.855Z,19.79
2018-09-27T12:27:00.662Z,19.84
2018-09-27T12:28:07.942Z,19.84
2018-09-27T12:29:15.729Z,19.84
2018-09-27T12:30:23.018Z,19.91
2018-09-27T12:31:29.823Z,20.03
2018-09-27T12:32:37.613Z,20.09
2018-09-27T12:33:44.909Z,20.09
2018-09-27T12:34:52.218Z,20.16
2018-09-27T12:35:59.491Z,20.28
2018-09-27T12:37:06.803Z,20.31
2018-09-27T12:38:14.134Z,20.38
2018-09-27T12:39:21.412Z,20.44
2018-09-27T12:40:28.203Z,20.48
2018-09-27T12:41:36.085Z,20.52
2018-09-27T12:42:43.438Z,20.59
2018-09-27T12:43:50.624Z,20.59
2018-09-27T12:44:57.995Z,20.65
2018-09-27T12:46:05.395Z,20.69
2018-09-27T12:47:12.571Z,20.69
2018-09-27T12:48:19.450Z,20.65
2018-09-27T12:49:27.287Z,20.64
2018-09-27T12:50:34.055Z,20.72
2018-09-27T12:51:41.914Z,20.83
2018-09-27T12:52:48.773Z,20.95
2018-09-27T12:53:56.004Z,20.95
2018-09-27T12:55:03.810Z,20.97
2018-09-27T12:56:11.286Z,20.98
2018-09-27T12:57:18.455Z,20.93
2018-09-27T12:58:25.821Z,20.95
2018-09-27T12:59:33.084Z,20.96
2018-09-27T13:00:40.413Z,21.01
2018-09-27T13:01:47.863Z,21.18
2018-09-27T13:02:55.167Z,21.31
2018-09-27T13:04:01.943Z,21.29
2018-09-27T13:05:09.737Z,21.29
2018-09-27T13:06:17.079Z,21.27
2018-09-27T13:07:24.457Z,21.30
2018-09-27T13:08:31.873Z,21.25
2018-09-27T13:09:39.389Z,21.26
2018-09-27T13:10:46.541Z,21.32
2018-09-27T13:11:54.008Z,21.47
2018-09-27T13:13:01.380Z,21.58
2018-09-27T13:14:08.764Z,21.66
2018-09-27T13:15:16.159Z,21.58
2018-09-27T13:16:23.579Z,21.44
2018-09-27T13:17:31.055Z,21.40
2018-09-27T13:18:38.923Z,21.46
2018-09-27T13:19:45.867Z,21.56
2018-09-27T13:20:53.282Z,21.67
2018-09-27T13:22:00.684Z,21.68
2018-09-27T13:23:08.118Z,21.79
2018-09-27T13:24:15.029Z,21.85
2018-09-27T13:25:22.439Z,21.93
2018-09-27T13:26:30.369Z,21.91
2018-09-27T13:27:37.790Z,21.92
2018-09-27T13:28:44.746Z,21.94
2018-09-27T13:29:52.570Z,21.92
2018-09-27T13:30:59.988Z,21.99
2018-09-27T13:32:06.923Z,22.05
2018-09-27T13:33:14.773Z,22.13
2018-09-27T13:34:22.154Z,22.08
2018-09-27T13:35:29.042Z,22.16
2018-09-27T13:36:36.908Z,22.12
2018-09-27T13:37:44.288Z,22.15
2018-09-27T13:38:51.657Z,22.17
2018-09-27T13:39:59.091Z,22.20
2018-09-27T13:41:05.843Z,22.19
2018-09-27T13:42:13.709Z,22.17
2018-09-27T13:43:21.025Z,22.24
2018-09-27T13:44:28.353Z,22.22
2018-09-27T13:45:35.688Z,22.30
2018-09-27T13:46:43.011Z,22.38
2018-09-27T13:47:50.370Z,22.47
2018-09-27T13:48:58.245Z,22.46
2018-09-27T13:50:04.523Z,22.50
2018-09-27T13:51:12.329Z,22.60
2018-09-27T13:52:19.286Z,22.56
2018-09-27T13:53:26.485Z,22.58
2018-09-27T13:54:34.293Z,22.54
2018-09-27T13:55:41.600Z,22.54
2018-09-27T13:56:48.971Z,22.54
2018-09-27T13:57:56.199Z,22.59
2018-09-27T13:59:03.000Z,22.59
2018-09-27T14:00:10.296Z,22.64
2018-09-27T14:01:17.572Z,22.63
2018-09-27T14:02:25.370Z,22.57
2018-09-27T14:03:32.646Z,22.62
2018-09-27T14:04:39.943Z,22.69
2018-09-27T14:05:47.216Z,22.80
2018-09-27T14:06:54.494Z,22.86
2018-09-27T14:08:01.781Z,22.95
2018-09-27T14:09:08.558Z,22.96
2018-09-27T14:10:16.324Z,22.95
2018-09-27T14:11:23.094Z,22.95
2018-09-27T14:12:30.372Z,22.94
2018-09-27T14:13:37.646Z,22.87
2018-09-27T14:14:44.959Z,22.75
2018-09-27T14:15:52.169Z,22.78
2018-09-27T14:16:59.990Z,22.86
2018-09-27T14:18:07.292Z,22.84
2018-09-27T14:19:14.454Z,22.86
2018-09-27T14:20:21.722Z,22.81
2018-09-27T14:21:28.983Z,22.90
2018-09-27T14:22:36.244Z,22.94
2018-09-27T14:23:43.509Z,23.10
2018-09-27T14:24:50.771Z,22.97
2018-09-27T14:25:58.019Z,22.96
2018-09-27T14:27:05.281Z,23.03
2018-09-27T14:28:12.533Z,23.11
2018-09-27T14:29:19.264Z,23.23
2018-09-27T14:30:27.006Z,23.41
2018-09-27T14:31:34.258Z,23.42
2018-09-27T14:32:41.479Z,23.42
2018-09-27T14:33:48.221Z,23.34